createdAt,value
2023-01-13T00:00:28.247Z,6.46
2023-01-13T00:04:08.005Z,6.52
2023-01-13T00:07:05.822Z,6.53
2023-01-13T00:10:11.101Z,6.46
2023-01-13T00:13:05.707Z,6.45
2023-01-13T00:16:01.854Z,6.44
2023-01-13T00:19:08.982Z,6.48
2023-01-13T00:21:56.409Z,6.53
2023-01-13T00:24:59.012Z,6.47
2023-01-13T00:28:10.472Z,6.46
2023-01-13T00:31:14.657Z,6.46
2023-01-13T00:44:23.902Z,6.47
2023-01-13T00:47:27.134Z,6.51
2023-01-13T00:50:49.127Z,6.53
2023-01-13T00:53:52.636Z,6.56
2023-01-13T00:56:47.323Z,6.47
2023-01-13T01:00:17.659Z,6.49
2023-01-13T01:06:43.359Z,6.54
2023-01-13T01:15:59.754Z,6.55
2023-01-13T01:19:08.296Z,6.50
2023-01-13T01:22:43.779Z,6.50
2023-01-13T01:25:46.815Z,6.60
2023-01-13T01:28:42.586Z,6.56
2023-01-13T01:31:37.363Z,6.60
2023-01-13T01:34:40.770Z,6.59
2023-01-13T01:40:42.780Z,6.64
2023-01-13T01:44:32.725Z,6.64
2023-01-13T01:47:47.768Z,6.58
2023-01-13T01:51:12.043Z,6.61
2023-01-13T01:54:49.356Z,6.57
2023-01-13T02:02:00.052Z,6.59
2023-01-13T02:05:32.294Z,6.58
2023-01-13T02:16:45.347Z,6.68
2023-01-13T02:20:22.192Z,6.66
2023-01-13T02:24:13.942Z,6.69
2023-01-13T02:27:43.630Z,6.68
2023-01-13T02:37:26.605Z,6.64
2023-01-13T02:41:35.736Z,6.67
2023-01-13T02:44:51.452Z,6.70
2023-01-13T02:48:02.710Z,6.69
2023-01-13T02:51:16.892Z,6.64
2023-01-13T02:54:31.312Z,6.68
2023-01-13T02:57:24.482Z,6.72
2023-01-13T03:03:49.319Z,6.66
2023-01-13T03:08:04.600Z,6.66
2023-01-13T03:11:54.788Z,6.73
2023-01-13T03:15:29.813Z,6.75
2023-01-13T03:19:05.872Z,6.76
2023-01-13T03:22:40.897Z,6.67
2023-01-13T03:26:20.564Z,6.73
2023-01-13T03:36:49.670Z,6.73
2023-01-13T03:44:31.952Z,6.69
2023-01-13T03:54:19.770Z,6.80
2023-01-13T03:58:04.211Z,6.81
2023-01-13T04:01:15.479Z,6.71
2023-01-13T04:16:51.072Z,6.77
2023-01-13T04:23:57.217Z,6.76
2023-01-13T04:38:02.350Z,6.85
2023-01-13T04:41:33.028Z,6.79
2023-01-13T04:49:12.666Z,6.87
2023-01-13T04:52:19.734Z,6.88
2023-01-13T04:58:55.079Z,6.86
2023-01-13T05:01:58.339Z,6.85
2023-01-13T05:09:34.594Z,6.86
2023-01-13T05:12:45.727Z,6.93
2023-01-13T05:20:04.637Z,6.91
2023-01-13T05:31:10.872Z,6.90
2023-01-13T05:38:15.092Z,6.84
2023-01-13T05:41:28.302Z,6.87
2023-01-13T05:44:28.148Z,6.90
2023-01-13T05:47:55.980Z,6.97
2023-01-13T06:00:25.486Z,6.81
2023-01-13T06:17:43.196Z,6.92
2023-01-13T06:55:19.208Z,7.05
2023-01-13T06:58:06.906Z,7.01
2023-01-13T07:02:02.564Z,6.92
2023-01-13T07:06:24.792Z,7.02
2023-01-13T07:16:32.403Z,7.06
2023-01-13T07:19:23.699Z,7.06
2023-01-13T07:22:13.583Z,7.08
2023-01-13T07:25:00.339Z,7.06
2023-01-13T07:27:47.206Z,7.08
2023-01-13T07:30:33.975Z,7.10
2023-01-13T07:33:21.075Z,7.10
2023-01-13T07:36:08.547Z,7.16
2023-01-13T07:38:56.725Z,7.17
2023-01-13T07:42:02.059Z,7.18
2023-01-13T07:44:54.035Z,7.18
2023-01-13T10:00:53.196Z,8.02
2023-01-13T10:08:23.259Z,8.13
2023-01-13T10:11:37.734Z,8.13
2023-01-13T10:14:38.130Z,8.23
2023-01-13T10:17:41.089Z,8.28
2023-01-13T10:20:40.593Z,8.22
2023-01-13T10:23:39.077Z,8.27
2023-01-13T10:26:47.120Z,8.27
2023-01-13T10:29:36.362Z,8.26
2023-01-13T10:32:24.298Z,8.27
2023-01-13T10:35:11.157Z,8.17
2023-01-13T10:37:58.022Z,8.21
2023-01-13T10:40:58.814Z,8.25
2023-01-13T10:43:58.480Z,8.31
2023-01-13T10:46:57.055Z,8.32
2023-01-13T10:50:09.312Z,8.33
2023-01-13T10:53:02.396Z,8.27
2023-01-13T10:56:03.381Z,8.31
2023-01-13T10:58:50.563Z,8.32
2023-01-13T11:01:40.313Z,8.35
2023-01-13T11:04:37.899Z,8.42
2023-01-13T11:07:34.317Z,8.43
2023-01-13T11:10:27.601Z,8.46
2023-01-13T11:13:22.746Z,8.43
2023-01-13T11:16:15.911Z,8.49
2023-01-13T11:19:13.233Z,8.40
2023-01-13T11:22:06.739Z,8.50
2023-01-13T11:24:59.941Z,8.53
2023-01-13T11:28:31.472Z,8.55
2023-01-13T11:31:26.225Z,8.64
2023-01-13T11:34:25.343Z,8.64
2023-01-13T11:41:09.543Z,8.78
2023-01-13T11:44:44.850Z,8.84
2023-01-13T11:47:51.200Z,8.85
2023-01-13T11:51:25.823Z,8.92
2023-01-13T11:54:31.945Z,8.92
2023-01-13T11:57:34.500Z,9.01
2023-01-13T12:00:54.500Z,9.03
2023-01-13T12:04:05.782Z,9.06
2023-01-13T12:07:02.749Z,9.08
2023-01-13T12:10:03.764Z,9.07
2023-01-13T12:13:00.291Z,9.13
2023-01-13T12:16:09.221Z,9.07
2023-01-13T12:19:16.669Z,9.18
2023-01-13T12:22:13.775Z,9.20
2023-01-13T12:25:26.825Z,9.22
2023-01-13T12:28:17.790Z,9.22
2023-01-13T12:31:04.799Z,9.21
2023-01-13T12:34:06.231Z,9.26
2023-01-13T12:37:09.498Z,9.26
2023-01-13T12:40:15.375Z,9.27
2023-01-13T12:43:39.560Z,9.29
2023-01-13T12:46:26.247Z,9.30
2023-01-13T12:49:26.437Z,9.30
2023-01-13T12:52:33.379Z,9.29
2023-01-13T12:55:25.364Z,9.25
2023-01-13T12:58:12.087Z,9.32
2023-01-13T13:01:11.982Z,9.33
2023-01-13T13:04:10.977Z,9.34
2023-01-13T13:07:12.284Z,9.33
2023-01-13T13:10:27.611Z,9.33
2023-01-13T13:13:47.603Z,9.28
2023-01-13T13:17:01.275Z,9.31
2023-01-13T13:19:55.784Z,9.33
2023-01-13T13:22:55.383Z,9.33
2023-01-13T13:26:20.255Z,9.32
2023-01-13T13:29:24.344Z,9.33
2023-01-13T13:32:17.551Z,9.36
2023-01-13T13:35:51.863Z,9.36
2023-01-13T13:39:40.086Z,9.36
2023-01-13T13:42:47.712Z,9.33
2023-01-13T13:45:53.145Z,9.35
2023-01-13T13:48:42.066Z,9.36
2023-01-13T13:51:41.790Z,9.35
2023-01-13T13:54:30.986Z,9.32
2023-01-13T13:57:19.291Z,9.36
2023-01-13T14:00:18.351Z,9.35
2023-01-13T14:03:19.350Z,9.35
2023-01-13T14:06:09.319Z,9.33
2023-01-13T14:08:56.116Z,9.32
2023-01-13T14:11:54.794Z,9.32
2023-01-13T14:14:49.113Z,9.32
2023-01-13T14:17:39.049Z,9.33
2023-01-13T14:20:28.016Z,9.32
2023-01-13T14:25:57.903Z,9.25
2023-01-13T14:28:52.706Z,9.28
2023-01-13T14:31:49.350Z,9.27
2023-01-13T14:37:47.401Z,9.30
2023-01-13T14:40:38.330Z,9.32
2023-01-13T14:43:27.650Z,9.30
2023-01-13T14:46:17.078Z,9.30
2023-01-13T14:49:04.437Z,9.28
2023-01-13T14:52:02.515Z,9.29
2023-01-13T14:59:35.858Z,9.19
2023-01-13T15:02:30.774Z,9.26
2023-01-13T15:05:21.273Z,9.24
2023-01-13T15:08:11.496Z,9.24
2023-01-13T15:11:10.540Z,9.23
2023-01-13T15:16:44.860Z,9.17
2023-01-13T15:19:39.419Z,9.20
2023-01-13T15:22:47.497Z,9.13
2023-01-13T15:25:46.749Z,9.15
2023-01-13T15:28:40.611Z,9.12
2023-01-13T15:31:31.349Z,9.08
2023-01-13T15:34:20.978Z,9.13
2023-01-13T15:37:09.324Z,9.13
2023-01-13T15:39:56.153Z,9.10
2023-01-13T15:43:01.566Z,9.12
2023-01-13T15:46:07.891Z,9.11
2023-01-13T15:48:57.759Z,9.05
2023-01-13T15:51:45.476Z,9.07
2023-01-13T15:54:40.133Z,9.02
2023-01-13T15:57:37.609Z,9.02
2023-01-13T16:00:27.594Z,9.01
2023-01-13T16:03:23.178Z,8.95
2023-01-13T16:06:38.973Z,9.02
2023-01-13T16:09:46.315Z,8.95
2023-01-13T16:12:44.610Z,8.91
2023-01-13T16:15:56.737Z,8.95
2023-01-13T16:18:48.319Z,8.89
2023-01-13T16:28:31.660Z,8.89
2023-01-13T16:31:28.851Z,8.83
2023-01-13T16:34:19.442Z,8.83
2023-01-13T16:41:07.226Z,8.80
2023-01-13T16:44:23.559Z,8.82
2023-01-13T16:47:14.325Z,8.83
2023-01-13T16:50:11.450Z,8.82
2023-01-13T16:52:58.648Z,8.80
2023-01-13T16:55:45.640Z,8.78
2023-01-13T16:58:34.969Z,8.70
2023-01-13T17:01:25.236Z,8.73
2023-01-13T17:04:26.517Z,8.63
2023-01-13T17:07:18.471Z,8.70
2023-01-13T17:10:19.620Z,8.62
2023-01-13T17:13:36.273Z,8.60
2023-01-13T17:16:37.023Z,8.60
2023-01-13T17:19:27.553Z,8.57
2023-01-13T17:22:26.432Z,8.58
2023-01-13T17:25:16.161Z,8.60
2023-01-13T17:32:13.410Z,8.50
2023-01-13T17:38:31.153Z,8.41
2023-01-13T17:41:42.031Z,8.49
2023-01-13T17:44:29.466Z,8.37
2023-01-13T17:47:21.443Z,8.35
2023-01-13T17:50:12.202Z,8.39
2023-01-13T17:53:24.206Z,8.35
2023-01-13T17:56:18.881Z,8.32
2023-01-13T17:59:25.323Z,8.35
2023-01-13T18:05:04.164Z,8.28
2023-01-13T18:21:44.782Z,8.17
2023-01-13T18:25:16.593Z,8.04
2023-01-13T18:28:13.250Z,8.10
2023-01-13T18:31:10.749Z,8.01
2023-01-13T18:34:01.861Z,8.02
2023-01-13T18:36:54.896Z,8.03
2023-01-13T18:40:10.979Z,7.97
2023-01-13T18:46:16.589Z,7.87
2023-01-13T18:49:08.075Z,7.86
2023-01-13T18:51:57.485Z,7.79
2023-01-13T18:55:18.398Z,7.86
2023-01-13T18:58:27.487Z,7.83
2023-01-13T19:01:48.664Z,7.81
2023-01-13T19:05:14.861Z,7.67
2023-01-13T19:08:48.510Z,7.62
2023-01-13T19:12:17.659Z,7.61
2023-01-13T19:16:02.247Z,7.65
2023-01-13T19:19:05.640Z,7.55
2023-01-13T19:22:39.238Z,7.52
2023-01-13T19:26:02.456Z,7.51
2023-01-13T19:29:02.043Z,7.51
2023-01-13T19:32:09.422Z,7.42
2023-01-13T19:39:22.543Z,7.39
2023-01-13T19:43:21.892Z,7.38
2023-01-13T20:48:11.298Z,6.94
2023-01-13T21:17:15.608Z,6.83
2023-01-13T21:24:10.228Z,6.90
2023-01-13T21:27:02.699Z,6.84
2023-01-13T21:30:05.839Z,6.82
2023-01-13T21:33:13.392Z,6.85
2023-01-13T21:36:20.380Z,6.87
2023-01-13T21:39:12.435Z,6.82
2023-01-13T21:42:23.069Z,6.83
2023-01-13T21:45:42.093Z,6.87
2023-01-13T21:48:32.159Z,6.80
2023-01-13T21:51:31.944Z,6.77
2023-01-13T21:57:40.937Z,6.77
2023-01-13T22:00:33.139Z,6.81
2023-01-13T22:06:28.833Z,6.74
2023-01-13T22:10:02.957Z,6.82
2023-01-13T22:13:24.033Z,6.72
2023-01-13T22:16:41.954Z,6.74
2023-01-13T22:20:00.734Z,6.74
2023-01-13T22:22:59.788Z,6.72
2023-01-13T22:29:47.741Z,6.69
2023-01-13T22:32:51.240Z,6.70
2023-01-13T22:36:05.330Z,6.74
2023-01-13T22:39:08.923Z,6.68
2023-01-13T22:43:08.531Z,6.65
2023-01-13T22:49:08.462Z,6.69
2023-01-13T22:52:00.313Z,6.67
2023-01-13T22:54:56.488Z,6.64
2023-01-13T22:57:48.460Z,6.67
2023-01-13T23:01:01.330Z,6.63
2023-01-13T23:03:54.568Z,6.64
2023-01-13T23:06:49.155Z,6.67
2023-01-13T23:09:45.248Z,6.62
2023-01-13T23:12:40.579Z,6.70
2023-01-13T23:15:30.154Z,6.69
2023-01-13T23:18:33.091Z,6.63
2023-01-13T23:21:45.056Z,6.69
2023-01-13T23:24:33.954Z,6.63
2023-01-13T23:27:33.543Z,6.68
2023-01-13T23:30:28.717Z,6.60
2023-01-13T23:33:22.210Z,6.67
2023-01-13T23:36:13.221Z,6.64
2023-01-13T23:39:00.279Z,6.66
2023-01-13T23:41:52.480Z,6.64
2023-01-13T23:44:48.189Z,6.56
2023-01-13T23:47:39.305Z,6.63
2023-01-13T23:50:27.811Z,6.63
2023-01-13T23:53:17.281Z,6.62
2023-01-13T23:56:09.174Z,6.60
2023-01-13T23:58:58.987Z,6.61
